createdAt,value
2023-05-09T00:00:47.656Z,7.60
2023-05-09T00:03:14.532Z,7.80
2023-05-09T00:05:41.806Z,7.70
2023-05-09T00:08:08.716Z,7.70
2023-05-09T00:10:35.735Z,7.70
2023-05-09T00:13:02.518Z,7.70
2023-05-09T00:15:29.355Z,7.50
2023-05-09T00:17:56.169Z,7.60
2023-05-09T00:20:23.045Z,7.50
2023-05-09T00:22:49.755Z,7.60
2023-05-09T00:25:16.735Z,7.60
2023-05-09T00:27:43.580Z,7.70
2023-05-09T00:30:10.402Z,7.50
2023-05-09T00:32:37.230Z,7.30
2023-05-09T00:35:04.355Z,7.40
2023-05-09T00:37:31.418Z,7.40
2023-05-09T00:39:58.205Z,7.60
2023-05-09T00:42:24.995Z,7.60
2023-05-09T00:44:51.692Z,7.50
2023-05-09T00:47:18.499Z,7.50
2023-05-09T00:49:45.311Z,7.10
2023-05-09T00:52:12.074Z,7.10
2023-05-09T00:54:39.058Z,6.90
2023-05-09T00:57:05.779Z,6.70
2023-05-09T00:59:32.596Z,6.90
2023-05-09T01:01:59.270Z,6.80
2023-05-09T01:04:26.124Z,6.90
2023-05-09T01:07:16.074Z,7.10
2023-05-09T01:09:47.412Z,7.00
2023-05-09T01:12:18.757Z,7.00
2023-05-09T01:14:51.678Z,7.20
2023-05-09T01:17:36.956Z,7.20
2023-05-09T01:20:13.149Z,7.30
2023-05-09T01:22:44.296Z,7.30
2023-05-09T01:25:27.489Z,7.40
2023-05-09T01:28:08.613Z,7.20
2023-05-09T01:30:35.924Z,7.30
2023-05-09T01:33:05.346Z,7.20
2023-05-09T01:35:33.130Z,7.10
2023-05-09T01:37:59.851Z,7.10
2023-05-09T01:40:30.432Z,7.00
2023-05-09T01:42:59.855Z,7.00
2023-05-09T01:45:27.307Z,7.00
2023-05-09T01:47:54.124Z,6.90
2023-05-09T01:50:21.820Z,6.90
2023-05-09T01:52:49.382Z,6.90
2023-05-09T01:55:16.871Z,7.00
2023-05-09T01:57:44.669Z,6.90
2023-05-09T02:00:13.280Z,6.90
2023-05-09T02:02:40.152Z,6.80
2023-05-09T02:05:08.686Z,6.90
2023-05-09T02:07:35.866Z,6.80
2023-05-09T02:10:03.224Z,6.80
2023-05-09T02:12:29.952Z,6.80
2023-05-09T02:14:56.679Z,6.80
2023-05-09T02:17:23.505Z,6.70
2023-05-09T02:19:50.217Z,6.80
2023-05-09T02:22:16.952Z,6.60
2023-05-09T02:24:45.277Z,6.80
2023-05-09T02:27:12.456Z,6.70
2023-05-09T02:29:41.712Z,6.50
2023-05-09T02:32:11.264Z,6.60
2023-05-09T02:34:38.455Z,6.50
2023-05-09T02:37:05.445Z,6.40
2023-05-09T02:39:32.255Z,6.40
2023-05-09T02:42:16.053Z,6.40
2023-05-09T02:44:42.798Z,6.70
2023-05-09T02:47:09.683Z,6.70
2023-05-09T02:49:36.380Z,6.90
2023-05-09T02:52:03.194Z,6.90
2023-05-09T02:54:29.965Z,6.90
2023-05-09T02:56:56.744Z,7.00
2023-05-09T02:59:23.533Z,7.30
2023-05-09T03:01:50.323Z,7.40
2023-05-09T03:04:17.997Z,7.50
2023-05-09T03:06:45.040Z,7.60
2023-05-09T03:09:11.736Z,7.90
2023-05-09T03:11:38.421Z,7.80
2023-05-09T03:14:05.329Z,7.90
2023-05-09T03:16:32.073Z,8.00
2023-05-09T03:18:58.842Z,8.20
2023-05-09T03:21:25.838Z,8.60
2023-05-09T03:23:52.768Z,9.40
2023-05-09T03:26:19.494Z,9.70
2023-05-09T03:28:46.957Z,10.00
2023-05-09T03:31:13.658Z,10.30
2023-05-09T03:33:40.644Z,10.60
2023-05-09T03:36:07.664Z,11.10
2023-05-09T03:38:34.340Z,11.90
2023-05-09T03:41:01.070Z,12.20
2023-05-09T03:43:27.801Z,12.60
2023-05-09T03:45:54.514Z,12.90
2023-05-09T03:48:21.264Z,13.20
2023-05-09T03:50:48.367Z,13.70
2023-05-09T03:53:15.146Z,14.20
2023-05-09T03:55:41.886Z,14.30
2023-05-09T03:58:08.630Z,14.50
2023-05-09T04:00:35.541Z,14.40
2023-05-09T04:03:02.382Z,14.00
2023-05-09T04:05:29.266Z,13.50
2023-05-09T04:07:55.993Z,13.20
2023-05-09T04:10:22.746Z,13.10
2023-05-09T04:12:49.434Z,13.00
2023-05-09T04:15:16.369Z,13.30
2023-05-09T04:17:44.065Z,13.50
2023-05-09T04:20:11.355Z,13.60
2023-05-09T04:22:38.133Z,13.90
2023-05-09T04:25:05.158Z,14.00
2023-05-09T04:27:31.984Z,14.40
2023-05-09T04:29:58.753Z,14.70
2023-05-09T04:32:25.733Z,14.60
2023-05-09T04:34:52.465Z,14.40
2023-05-09T04:37:19.338Z,14.80
2023-05-09T04:39:46.118Z,15.00
2023-05-09T04:42:12.805Z,14.90
2023-05-09T04:44:39.544Z,15.10
2023-05-09T04:47:06.781Z,15.40
2023-05-09T04:49:33.477Z,16.00
2023-05-09T04:52:00.255Z,16.30
2023-05-09T04:54:27.090Z,16.40
2023-05-09T04:57:00.296Z,16.50
2023-05-09T04:59:33.363Z,16.40
2023-05-09T05:02:00.306Z,16.40
2023-05-09T05:04:28.142Z,16.50
2023-05-09T05:06:54.940Z,16.20
2023-05-09T05:09:21.770Z,16.40
2023-05-09T05:11:58.750Z,16.80
2023-05-09T05:14:27.755Z,17.20
2023-05-09T05:16:54.453Z,17.30
2023-05-09T05:19:21.150Z,17.30
2023-05-09T05:21:47.924Z,18.20
2023-05-09T05:24:14.674Z,18.50
2023-05-09T05:26:41.373Z,18.80
2023-05-09T05:29:08.674Z,19.40
2023-05-09T05:31:36.398Z,19.90
2023-05-09T05:34:03.280Z,20.50
2023-05-09T05:36:29.974Z,20.70
2023-05-09T05:38:56.694Z,20.70
2023-05-09T05:41:23.545Z,21.10
2023-05-09T05:43:51.527Z,20.80
2023-05-09T05:46:20.321Z,20.90
2023-05-09T05:48:47.096Z,21.30
2023-05-09T05:51:13.832Z,21.50
2023-05-09T05:53:40.971Z,21.80
2023-05-09T05:56:07.739Z,21.70
2023-05-09T05:58:34.479Z,21.70
2023-05-09T06:01:02.033Z,22.20
2023-05-09T06:05:57.757Z,22.40
2023-05-09T06:08:24.572Z,23.00
2023-05-09T06:10:51.277Z,23.30
2023-05-09T06:13:18.036Z,23.30
2023-05-09T06:15:44.789Z,23.50
2023-05-09T06:18:13.587Z,24.10
2023-05-09T06:20:40.364Z,23.80
2023-05-09T06:23:07.166Z,24.60
2023-05-09T06:25:33.939Z,24.30
2023-05-09T06:28:00.729Z,23.90
2023-05-09T06:30:27.551Z,24.00
2023-05-09T06:32:54.822Z,23.90
2023-05-09T06:35:21.880Z,23.90
2023-05-09T06:37:49.121Z,24.00
2023-05-09T06:40:16.314Z,24.40
2023-05-09T06:42:43.052Z,24.50
2023-05-09T06:45:10.338Z,25.20
2023-05-09T06:47:37.136Z,25.10
2023-05-09T06:50:03.986Z,25.00
2023-05-09T06:52:30.719Z,24.90
2023-05-09T06:54:57.397Z,24.80
2023-05-09T06:57:24.297Z,25.20
2023-05-09T06:59:51.139Z,25.30
2023-05-09T07:02:17.971Z,25.90
2023-05-09T07:04:44.996Z,26.30
2023-05-09T07:07:11.956Z,26.50
2023-05-09T07:09:38.840Z,26.20
2023-05-09T07:12:06.059Z,26.10
2023-05-09T07:14:32.926Z,26.10
2023-05-09T07:17:13.823Z,26.50
2023-05-09T07:19:46.567Z,26.30
2023-05-09T07:22:13.523Z,26.70
2023-05-09T07:24:40.531Z,26.70
2023-05-09T07:27:07.436Z,26.70
2023-05-09T07:29:34.339Z,26.70
2023-05-09T07:32:01.292Z,26.90
2023-05-09T07:34:28.284Z,27.20
2023-05-09T07:36:55.235Z,26.90
2023-05-09T07:39:22.134Z,27.00
2023-05-09T07:41:49.039Z,26.60
2023-05-09T07:44:16.170Z,26.80
2023-05-09T07:46:43.075Z,27.30
2023-05-09T07:49:09.931Z,28.00
2023-05-09T07:51:36.977Z,27.60
2023-05-09T07:54:03.937Z,27.60
2023-05-09T07:56:30.815Z,27.40
2023-05-09T07:58:57.608Z,27.80
2023-05-09T08:01:24.405Z,28.40
2023-05-09T08:03:51.338Z,28.30
2023-05-09T08:06:18.296Z,28.80
2023-05-09T08:08:45.208Z,29.10
2023-05-09T08:11:12.144Z,29.00
2023-05-09T08:13:39.148Z,28.80
2023-05-09T08:16:06.623Z,28.50
2023-05-09T08:18:33.557Z,28.70
2023-05-09T08:21:01.112Z,28.70
2023-05-09T08:23:30.106Z,28.50
2023-05-09T08:25:59.010Z,29.10
2023-05-09T08:28:28.531Z,29.50
2023-05-09T08:30:56.874Z,29.40
2023-05-09T08:33:24.247Z,28.90
2023-05-09T08:35:52.169Z,28.90
2023-05-09T08:38:19.544Z,28.70
2023-05-09T08:40:46.550Z,28.70
2023-05-09T08:43:15.627Z,28.70
2023-05-09T08:45:50.869Z,29.40
2023-05-09T08:48:18.611Z,29.40
2023-05-09T08:51:11.512Z,29.40
2023-05-09T08:53:38.493Z,29.50
2023-05-09T08:56:05.778Z,29.30
2023-05-09T08:58:34.232Z,29.20
2023-05-09T09:01:06.489Z,29.40
2023-05-09T09:03:33.518Z,29.60
2023-05-09T09:06:01.082Z,28.90
2023-05-09T09:08:28.035Z,28.40
2023-05-09T09:10:54.824Z,28.40
2023-05-09T09:13:21.989Z,28.30
2023-05-09T09:15:49.992Z,28.90
2023-05-09T09:18:22.156Z,29.20
2023-05-09T09:20:53.179Z,29.50
2023-05-09T09:23:21.079Z,29.40
2023-05-09T09:25:48.273Z,29.10
2023-05-09T09:28:15.591Z,28.10
2023-05-09T09:30:45.890Z,27.50
2023-05-09T09:33:18.836Z,27.90
2023-05-09T09:35:45.753Z,28.10
2023-05-09T09:38:12.598Z,29.60
2023-05-09T09:40:40.641Z,30.00
2023-05-09T09:43:08.075Z,30.90
2023-05-09T09:45:36.402Z,30.60
2023-05-09T09:48:07.205Z,30.80
2023-05-09T09:50:34.117Z,31.00
2023-05-09T09:53:01.037Z,31.20
2023-05-09T09:55:29.100Z,31.20
2023-05-09T09:57:55.931Z,31.50
2023-05-09T10:00:28.691Z,32.70
2023-05-09T10:02:57.861Z,32.70
2023-05-09T10:05:30.280Z,33.30
2023-05-09T10:07:59.125Z,32.40
2023-05-09T10:10:29.933Z,31.00
2023-05-09T10:12:58.427Z,30.00
2023-05-09T10:15:25.730Z,30.10
2023-05-09T10:17:56.459Z,30.30
2023-05-09T10:20:23.467Z,31.20
2023-05-09T10:22:54.224Z,31.70
2023-05-09T10:25:22.226Z,31.40
2023-05-09T10:27:51.445Z,31.40
2023-05-09T10:30:35.439Z,32.40
2023-05-09T10:33:11.244Z,32.20
2023-05-09T10:35:41.267Z,32.40
2023-05-09T10:38:09.964Z,32.20
2023-05-09T10:40:36.955Z,32.90
2023-05-09T10:43:05.339Z,32.10
2023-05-09T10:45:32.211Z,30.50
2023-05-09T10:47:59.524Z,31.20
2023-05-09T10:50:26.818Z,31.50
2023-05-09T10:53:08.860Z,31.90
2023-05-09T10:56:03.015Z,32.30
2023-05-09T10:58:33.561Z,32.40
2023-05-09T11:01:04.537Z,32.70
2023-05-09T11:03:57.962Z,32.90
2023-05-09T11:06:49.062Z,32.80
2023-05-09T11:09:38.731Z,32.30
2023-05-09T11:12:05.547Z,32.30
2023-05-09T11:14:40.828Z,33.80
2023-05-09T11:17:22.856Z,33.80
2023-05-09T11:19:51.800Z,31.50
2023-05-09T11:22:22.484Z,31.60
2023-05-09T11:24:52.308Z,31.70
2023-05-09T11:27:24.110Z,32.40
2023-05-09T11:29:56.287Z,32.30
2023-05-09T11:32:28.551Z,32.40
2023-05-09T11:35:17.109Z,32.00
2023-05-09T11:37:52.441Z,31.70
2023-05-09T11:40:20.514Z,31.60
2023-05-09T11:42:50.108Z,32.40
2023-05-09T11:45:18.366Z,33.00
2023-05-09T11:47:45.762Z,33.20
2023-05-09T11:50:14.665Z,32.70
2023-05-09T11:52:42.030Z,32.60
2023-05-09T11:55:12.848Z,33.30
2023-05-09T11:57:49.110Z,33.40
2023-05-09T12:00:26.294Z,32.80
2023-05-09T12:02:53.963Z,32.50
2023-05-09T12:05:21.556Z,32.70
2023-05-09T12:07:48.485Z,32.40
2023-05-09T12:10:16.552Z,31.80
2023-05-09T12:12:44.885Z,31.90
2023-05-09T12:15:14.465Z,31.30
2023-05-09T12:20:11.017Z,30.30
2023-05-09T12:22:37.806Z,29.20
2023-05-09T12:25:08.423Z,30.30
2023-05-09T12:27:35.668Z,30.90
2023-05-09T12:30:03.895Z,31.00
2023-05-09T12:32:32.938Z,31.00
2023-05-09T12:35:00.007Z,31.70
2023-05-09T12:37:26.960Z,32.00
2023-05-09T12:40:04.307Z,31.40
2023-05-09T12:42:31.834Z,29.50
2023-05-09T12:44:58.936Z,28.50
2023-05-09T12:47:29.501Z,27.70
2023-05-09T12:49:59.460Z,27.50
2023-05-09T12:52:26.849Z,28.00
2023-05-09T12:54:53.969Z,28.20
2023-05-09T12:57:21.594Z,29.10
2023-05-09T12:59:48.492Z,29.70
2023-05-09T13:02:15.317Z,30.40
2023-05-09T13:04:42.108Z,30.40
2023-05-09T13:07:10.275Z,27.20
2023-05-09T13:09:53.729Z,24.50
2023-05-09T13:12:22.647Z,21.80
2023-05-09T13:14:49.443Z,21.80
2023-05-09T13:17:16.209Z,21.30
2023-05-09T13:19:43.016Z,21.30
2023-05-09T13:22:12.156Z,21.40
2023-05-09T13:24:39.104Z,21.30
2023-05-09T13:27:05.956Z,21.10
2023-05-09T13:29:32.753Z,21.10
2023-05-09T13:31:59.971Z,21.10
2023-05-09T13:34:26.724Z,21.10
2023-05-09T13:36:53.437Z,21.00
2023-05-09T13:39:20.438Z,20.90
2023-05-09T13:41:48.648Z,20.90
2023-05-09T13:44:15.494Z,20.70
2023-05-09T13:46:42.567Z,20.80
2023-05-09T13:49:09.309Z,20.80
2023-05-09T13:51:35.996Z,20.70
2023-05-09T13:54:04.669Z,20.60
2023-05-09T13:56:31.997Z,20.30
2023-05-09T13:58:58.730Z,19.80
2023-05-09T14:01:25.573Z,19.50
2023-05-09T14:03:52.549Z,19.40
2023-05-09T14:06:19.420Z,19.30
2023-05-09T14:08:46.169Z,19.40
2023-05-09T14:11:12.891Z,19.50
2023-05-09T14:13:39.680Z,19.50
2023-05-09T14:16:06.881Z,19.50
2023-05-09T14:18:33.619Z,19.50
2023-05-09T14:21:00.299Z,19.60
2023-05-09T14:23:27.045Z,19.70
2023-05-09T14:25:53.850Z,19.90
2023-05-09T14:28:20.667Z,20.00
2023-05-09T14:30:47.365Z,20.00
2023-05-09T14:33:14.732Z,19.90
2023-05-09T14:35:41.884Z,19.90
2023-05-09T14:38:08.681Z,20.00
2023-05-09T14:40:35.563Z,20.00
2023-05-09T14:43:02.768Z,19.90
2023-05-09T14:45:30.176Z,20.00
2023-05-09T14:47:57.573Z,19.90
2023-05-09T14:50:24.390Z,19.80
2023-05-09T14:52:51.226Z,19.70
2023-05-09T14:55:18.323Z,19.70
2023-05-09T14:57:45.301Z,19.50
2023-05-09T15:00:20.121Z,19.60
2023-05-09T15:02:48.321Z,19.50
2023-05-09T15:05:15.186Z,19.50
2023-05-09T15:07:42.127Z,19.70
2023-05-09T15:10:09.384Z,19.60
2023-05-09T15:12:36.126Z,19.60
2023-05-09T15:15:15.623Z,19.40
2023-05-09T15:17:42.911Z,19.30
2023-05-09T15:20:10.060Z,19.30
2023-05-09T15:22:36.791Z,19.10
2023-05-09T15:25:06.193Z,19.00
2023-05-09T15:27:33.047Z,19.10
2023-05-09T15:30:00.419Z,19.10
2023-05-09T15:32:27.274Z,19.30
2023-05-09T15:34:54.102Z,19.20
2023-05-09T15:37:20.908Z,19.10
2023-05-09T15:39:48.053Z,19.00
2023-05-09T15:42:15.275Z,19.00
2023-05-09T15:44:42.696Z,18.90
2023-05-09T15:47:09.851Z,18.80
2023-05-09T15:49:36.565Z,18.80
2023-05-09T15:52:03.851Z,18.70
2023-05-09T15:54:31.809Z,18.70
2023-05-09T15:56:59.405Z,18.70
2023-05-09T15:59:27.230Z,18.70
2023-05-09T16:01:54.508Z,18.70
2023-05-09T16:04:21.771Z,18.70
2023-05-09T16:06:49.051Z,18.60
2023-05-09T16:09:15.929Z,18.60
2023-05-09T16:11:42.929Z,18.60
2023-05-09T16:14:11.826Z,18.50
2023-05-09T16:16:39.281Z,18.50
2023-05-09T16:19:06.427Z,18.40
2023-05-09T16:21:33.493Z,18.40
2023-05-09T16:24:02.929Z,18.30
2023-05-09T16:26:31.091Z,18.40
2023-05-09T16:28:57.806Z,18.20
2023-05-09T16:31:26.697Z,18.20
2023-05-09T16:33:54.159Z,18.30
2023-05-09T16:36:21.336Z,18.30
2023-05-09T16:38:50.544Z,18.20
2023-05-09T16:41:17.307Z,18.30
2023-05-09T16:43:44.118Z,18.20
2023-05-09T16:46:10.929Z,18.20
2023-05-09T16:48:37.662Z,18.20
2023-05-09T16:51:05.693Z,18.10
2023-05-09T16:53:32.446Z,18.10
2023-05-09T16:55:59.160Z,18.10
2023-05-09T16:58:25.943Z,18.10
2023-05-09T17:00:52.773Z,17.90
2023-05-09T17:03:19.479Z,17.70
2023-05-09T17:05:46.284Z,17.70
2023-05-09T17:08:13.034Z,17.60
2023-05-09T17:10:42.011Z,17.60
2023-05-09T17:13:09.138Z,17.60
2023-05-09T17:15:36.997Z,17.60
2023-05-09T17:18:04.680Z,17.60
2023-05-09T17:20:31.874Z,17.60
2023-05-09T17:22:58.654Z,17.50
2023-05-09T17:25:25.409Z,17.40
2023-05-09T17:27:52.504Z,17.40
2023-05-09T17:30:22.140Z,17.40
2023-05-09T17:32:49.865Z,17.30
2023-05-09T17:35:19.583Z,17.40
2023-05-09T17:37:46.949Z,17.30
2023-05-09T17:40:13.925Z,17.20
2023-05-09T17:42:41.020Z,17.10
2023-05-09T17:45:08.399Z,17.10
2023-05-09T17:47:35.277Z,17.00
2023-05-09T17:50:02.008Z,16.90
2023-05-09T17:52:28.914Z,16.90
2023-05-09T17:54:55.648Z,16.80
2023-05-09T17:57:22.417Z,16.70
2023-05-09T17:59:49.248Z,16.60
2023-05-09T18:02:16.743Z,16.60
2023-05-09T18:04:45.274Z,16.60
2023-05-09T18:07:13.204Z,16.50
2023-05-09T18:09:39.916Z,16.50
2023-05-09T18:12:06.912Z,16.50
2023-05-09T18:14:33.652Z,16.40
2023-05-09T18:17:00.493Z,16.40
2023-05-09T18:19:27.320Z,16.20
2023-05-09T18:21:54.090Z,16.10
2023-05-09T18:24:21.822Z,16.10
2023-05-09T18:26:49.154Z,16.00
2023-05-09T18:29:17.200Z,16.00
2023-05-09T18:31:44.008Z,15.90
2023-05-09T18:34:11.196Z,15.90
2023-05-09T18:36:41.151Z,15.80
2023-05-09T18:39:08.960Z,15.80
2023-05-09T18:41:35.919Z,15.70
2023-05-09T18:44:02.651Z,15.70
2023-05-09T18:46:31.817Z,15.60
2023-05-09T18:48:58.970Z,15.60
2023-05-09T18:51:26.244Z,15.50
2023-05-09T18:53:53.435Z,15.50
2023-05-09T18:56:23.072Z,15.30
2023-05-09T18:58:50.332Z,15.20
2023-05-09T19:01:18.317Z,15.20
2023-05-09T19:03:54.019Z,15.20
2023-05-09T19:06:21.748Z,15.00
2023-05-09T19:08:48.897Z,15.00
2023-05-09T19:11:16.220Z,14.90
2023-05-09T19:13:48.642Z,14.90
2023-05-09T19:16:16.100Z,14.90
2023-05-09T19:18:42.867Z,14.80
2023-05-09T19:21:10.338Z,14.90
2023-05-09T19:23:37.018Z,14.80
2023-05-09T19:26:03.722Z,14.80
2023-05-09T19:28:30.467Z,14.70
2023-05-09T19:30:57.556Z,14.70
2023-05-09T19:33:25.101Z,14.50
2023-05-09T19:35:51.902Z,14.40
2023-05-09T19:38:18.647Z,14.30
2023-05-09T19:40:45.573Z,14.40
2023-05-09T19:43:13.466Z,14.40
2023-05-09T19:45:40.280Z,14.40
2023-05-09T19:48:07.103Z,14.50
2023-05-09T19:50:33.891Z,14.40
2023-05-09T19:53:01.108Z,14.40
2023-05-09T19:55:27.982Z,14.40
2023-05-09T19:57:55.194Z,14.30
2023-05-09T20:00:21.899Z,14.30
2023-05-09T20:02:49.883Z,14.20
2023-05-09T20:05:16.757Z,14.20
2023-05-09T20:07:43.460Z,14.20
2023-05-09T20:10:12.766Z,14.00
2023-05-09T20:12:39.610Z,14.10
2023-05-09T20:15:07.970Z,14.10
2023-05-09T20:17:34.707Z,14.00
2023-05-09T20:20:01.389Z,14.00
2023-05-09T20:22:28.085Z,13.90
2023-05-09T20:24:54.776Z,13.80
2023-05-09T20:27:22.037Z,13.90
2023-05-09T20:29:48.733Z,13.70
2023-05-09T20:32:15.482Z,13.70
2023-05-09T20:34:42.184Z,13.70
2023-05-09T20:37:09.018Z,13.70
2023-05-09T20:39:35.797Z,13.50
2023-05-09T20:42:02.682Z,13.60
2023-05-09T20:44:29.412Z,13.50
2023-05-09T20:46:56.358Z,13.50
2023-05-09T20:49:24.283Z,13.50
2023-05-09T20:51:51.501Z,13.50
2023-05-09T20:54:18.220Z,13.50
2023-05-09T20:56:45.026Z,13.40
2023-05-09T20:59:11.729Z,13.30
2023-05-09T21:01:40.217Z,13.30
2023-05-09T21:04:08.357Z,13.30
2023-05-09T21:06:37.809Z,13.20
2023-05-09T21:09:05.664Z,13.20
2023-05-09T21:11:34.722Z,13.20
2023-05-09T21:14:01.375Z,13.00
2023-05-09T21:16:28.481Z,13.00
2023-05-09T21:18:55.199Z,13.00
2023-05-09T21:21:22.351Z,13.00
2023-05-09T21:23:49.042Z,12.90
2023-05-09T21:26:16.539Z,12.90
2023-05-09T21:28:43.302Z,12.90
2023-05-09T21:31:11.383Z,12.80
2023-05-09T21:33:39.464Z,12.80
2023-05-09T21:36:06.423Z,12.70
2023-05-09T21:38:33.086Z,12.50
2023-05-09T21:40:59.778Z,12.40
2023-05-09T21:43:26.647Z,12.20
2023-05-09T21:45:53.315Z,12.20
2023-05-09T21:48:20.053Z,12.10
2023-05-09T21:50:46.707Z,11.90
2023-05-09T21:53:13.592Z,12.00
2023-05-09T21:55:40.362Z,11.90
2023-05-09T21:58:09.763Z,11.70
2023-05-09T22:00:36.416Z,11.70
2023-05-09T22:03:03.165Z,11.60
2023-05-09T22:05:30.236Z,11.60
2023-05-09T22:07:56.913Z,11.70
2023-05-09T22:10:23.564Z,11.70
2023-05-09T22:12:50.226Z,11.40
2023-05-09T22:15:17.024Z,11.50
2023-05-09T22:17:43.806Z,11.60
2023-05-09T22:20:10.818Z,11.60
2023-05-09T22:22:37.553Z,11.50
2023-05-09T22:25:04.578Z,11.40
2023-05-09T22:27:31.383Z,11.40
2023-05-09T22:29:58.114Z,11.40
2023-05-09T22:32:24.789Z,11.50
2023-05-09T22:34:51.575Z,11.50
2023-05-09T22:37:18.229Z,11.40
2023-05-09T22:39:44.889Z,11.30
2023-05-09T22:42:11.658Z,11.30
2023-05-09T22:44:39.483Z,11.30
2023-05-09T22:47:07.830Z,11.30
2023-05-09T22:49:35.484Z,11.30
2023-05-09T22:52:02.591Z,11.20
2023-05-09T22:54:29.481Z,11.10
2023-05-09T22:56:56.251Z,11.20
2023-05-09T22:59:23.208Z,11.10
2023-05-09T23:01:50.355Z,11.10
2023-05-09T23:04:17.207Z,10.90
2023-05-09T23:06:44.093Z,11.00
2023-05-09T23:09:10.963Z,10.90
2023-05-09T23:11:37.861Z,10.90
2023-05-09T23:14:04.634Z,10.90
2023-05-09T23:16:31.316Z,10.80
2023-05-09T23:18:58.062Z,10.80
2023-05-09T23:21:24.798Z,10.80
2023-05-09T23:23:51.526Z,10.70
2023-05-09T23:26:18.200Z,10.60
2023-05-09T23:28:44.915Z,10.60
2023-05-09T23:31:11.712Z,10.50
2023-05-09T23:33:38.445Z,10.50
2023-05-09T23:36:05.570Z,10.40
2023-05-09T23:38:32.250Z,10.40
2023-05-09T23:41:00.049Z,10.30
2023-05-09T23:43:26.826Z,10.20
2023-05-09T23:45:53.953Z,10.30
2023-05-09T23:48:20.738Z,10.10
2023-05-09T23:50:47.816Z,10.20
2023-05-09T23:53:14.553Z,10.00
2023-05-09T23:55:41.299Z,9.90
2023-05-09T23:58:08.028Z,10.00
